Nearby METAR Reports

 

KSEE - San Diego/Santee, California, USA
Distance from station: E 4mi, 6km
Updated: Wed, 06-Jul-2022 12:47pm PDT
NOT Current
Few Clouds
Few Clouds
 Wind from W
Wind: W 9 mph , 15 km/h
Temperature: 79°F , 26°C
Dew Point: 61°F , 16°C
Humidity: 54%
Barometer: 29.96 inHg , 1014.6 hPa
Clouds: Few Clouds
Visibility: 10 miles , 16 km
Cloud details: Few Clouds 2500 ft
2022/07/06 19:47 KSEE 061947Z 28008KT 10SM FEW025 26/16 A2996
KMYF - San Diego/Mntgmy, California, USA
Distance from station: W 6mi, 10km
Updated: Wed, 06-Jul-2022 1:06pm PDT
NOT Current
Partly cloudy
Partly cloudy
 Wind from WNW
Wind: WNW 8 mph , 13 km/h
Temperature: 75°F , 24°C
Dew Point: 63°F , 17°C
Humidity: 65%
Barometer: 29.97 inHg , 1014.9 hPa
Clouds: Partly cloudy
Visibility: 10 miles , 16 km
Cloud details: Partly cloudy 1500 ft
2022/07/06 20:06 KMYF 062006Z 30007KT 260V330 10SM SCT015 24/17 A2997 RMK AO2 T02390167
 
KNKX - Miramar Nas/San, California, USA
Distance from station: WNW 7mi, 11km
Updated: Wed, 06-Jul-2022 12:55pm PDT
NOT Current
Partly cloudy
Partly cloudy
 Wind from W
Wind: W 8 mph , 13 km/h
Temperature: 72°F , 22°C
Dew Point: 61°F , 16°C
Humidity: 69%
Barometer: 29.97 inHg , 1014.9 hPa
Clouds: Partly cloudy
Visibility: 10 miles , 16 km
Cloud details: Partly cloudy 1300 ft
2022/07/06 19:55 KNKX 061955Z 26007KT 10SM SCT013 22/16 A2997 RMK AO2 SLP143 T02220161
KSAN - San Diego, California, USA
Distance from station: WSW 11mi, 17km
Updated: Wed, 06-Jul-2022 12:51pm PDT
NOT Current
Mostly cloudy
Mostly cloudy
 Wind from W
Wind: W 10 mph , 17 km/h
Temperature: 72°F , 22°C
Dew Point: 63°F , 17°C
Humidity: 73%
Barometer: 29.99 inHg , 1015.6 hPa
Clouds: Mostly cloudy
Visibility: 10 miles , 16 km
Cloud details: Mostly cloudy 1500 ft
2022/07/06 19:51 KSAN 061951Z 28009KT 10SM BKN015 22/17 A2999 RMK AO2 SLP153 T02220167
 
KNZY - North Island Nas, California, USA
Distance from station: SW 13mi, 22km
Updated: Wed, 06-Jul-2022 12:52pm PDT
NOT Current
Mostly cloudy
Mostly cloudy
 Wind from W
Wind: W 10 mph , 17 km/h
Temperature: 70°F , 21°C
Dew Point: 63°F , 17°C
Humidity: 78%
Barometer: 29.97 inHg , 1014.9 hPa
Clouds: Mostly cloudy
Visibility: 10 miles , 16 km
Cloud details: Mostly cloudy 1500 ft
2022/07/06 19:52 KNZY 061952Z 28009KT 10SM BKN015 21/17 A2997 RMK AO2 SLP147 T02110167 $
KRNM - Ramona, California, USA
Distance from station: NNE 16mi, 26km
Updated: Wed, 06-Jul-2022 12:53pm PDT
NOT Current
Clear
Clear
 Wind from W
Wind: W 9 mph , 15 km/h
Temperature: 81°F , 27°C
Heat Index: 81°F , 27°C
Dew Point: 57°F , 14°C
Humidity: 45%
Barometer: 29.97 inHg , 1014.9 hPa
Clouds: Clear
Visibility: 10 miles , 16 km
2022/07/06 19:53 KRNM 061953Z 26008KT 10SM CLR 27/14 A2997 RMK AO2 SLP136 T02670144
 
KSDM - San Diego/Brown, California, USA
Distance from station: S 16mi, 26km
Updated: Wed, 06-Jul-2022 12:53pm PDT
NOT Current
Partly cloudy
Partly cloudy
 Wind from WNW
Wind: WNW 10 mph , 17 km/h, Gust: 21 mph , 33 km/h
Temperature: 75°F , 24°C
Dew Point: 63°F , 17°C
Humidity: 65%
Barometer: 29.97 inHg , 1014.9 hPa
Clouds: Partly cloudy
Visibility: 10 miles , 16 km
Cloud details: Partly cloudy 1600 ft
2022/07/06 19:53 KSDM 061953Z 29009G18KT 10SM SCT016 24/17 A2997 RMK AO2 SLP143 T02390167
KNRS - Imperial Beach, California, USA
Distance from station: SSW 18mi, 29km
Updated: Wed, 06-Jul-2022 12:53pm PDT
NOT Current
Mostly cloudy
Mostly cloudy
 Wind from NW
Wind: NW 12 mph , 19 km/h
Temperature: 72°F , 22°C
Dew Point: 63°F , 17°C
Humidity: 73%
Barometer: 29.98 inHg , 1015.2 hPa
Clouds: Mostly cloudy
Visibility: 10 miles , 16 km
Cloud details: Mostly cloudy 1600 ft
2022/07/06 19:53 KNRS 061953Z 32010KT 10SM BKN016 22/17 A2998 RMK AO2 SLP151 T02220172 $
 
MMTJ - Tijuana Intl Arp, Mexico
Distance from station: S 20mi, 32km
Updated: Wed, 06-Jul-2022 12:43pm PDT
NOT Current
Few Clouds
Few Clouds
 Wind from WNW
Wind: WNW 14 mph , 22 km/h
Temperature: 75°F , 24°C
Dew Point: 63°F , 17°C
Humidity: 65%
Barometer: 30.00 inHg , 1015.9 hPa
Clouds: Few Clouds
Visibility: 8 miles , 13 km
Cloud details: Few Clouds 2500 ft
2022/07/06 19:43 MMTJ 061943Z 30012KT 8SM FEW025 24/17 A3000 RMK 8/500 HZY
KCRQ - Carlsbad, California, USA
Distance from station: NW 26mi, 43km
Updated: Wed, 06-Jul-2022 12:53pm PDT
NOT Current
Mostly cloudy
Mostly cloudy
 Wind from SW
Wind: SW 9 mph , 15 km/h
Temperature: 70°F , 21°C
Dew Point: 61°F , 16°C
Humidity: 73%
Barometer: 29.97 inHg , 1014.9 hPa
Clouds: Mostly cloudy
Visibility: 10 miles , 16 km
Cloud details: Mostly cloudy 1400 ft
2022/07/06 19:53 KCRQ 061953Z 23008KT 10SM BKN014 21/16 A2997 RMK AO2 SLP145 T02060161
 
KOKB - Oceanside, California, USA
Distance from station: NW 33mi, 54km
Updated: Wed, 06-Jul-2022 1:41pm PDT
Mostly cloudy
Mostly cloudy
 Wind from WSW
Wind: WSW 13 mph , 20 km/h
Temperature: 75°F , 24°C
Dew Point: 63°F , 17°C
Humidity: 65%
Barometer: 29.95 inHg , 1014.2 hPa
Clouds: Mostly cloudy
Visibility: 10 miles , 16 km
Cloud details: Mostly cloudy 1500 ft
2022/07/06 20:41 KOKB 062041Z AUTO 24011KT 10SM BKN015 24/17 A2995 RMK AO2 T02390172
KCZZ - Campo, California, USA
Distance from station: ESE 35mi, 56km
Updated: Mon, 26-Oct-2020 8:52am PDT
NOT Current

 Wind from NE
Wind: NE 14 mph , 22 km/h, Gust: 20 mph , 31 km/h
Temperature: 48°F , 9°C
Wind Chill: 42°F , 6°C
Dew Point: 27°F , -3°C
Humidity: 43%
Barometer: 29.99 inHg , 1015.6 hPa
2020/10/26 15:52 KCZZ 261552Z AUTO 05012G17KT 09/M03 A2999 RMK AO1 SLP140 T00891028
 
KNFG - Camp Pendleton, California, USA
Distance from station: NNW 37mi, 59km
Updated: Wed, 06-Jul-2022 12:52pm PDT
NOT Current
Clear
Clear
 Wind from SW
Wind: SW 9 mph , 15 km/h
Temperature: 75°F , 24°C
Dew Point: 63°F , 17°C
Humidity: 65%
Barometer: 29.96 inHg , 1014.6 hPa
Clouds: Clear
Visibility: 10 miles , 16 km
2022/07/06 19:52 KNFG 061952Z 23008KT 10SM CLR 24/17 A2996 RMK AO2 SLP144 T02440167
KRIV - Riverside/March, California, USA
Distance from station: N 74mi, 119km
Updated: Wed, 06-Jul-2022 12:58pm PDT
NOT Current
Clear
Clear
 Wind from NW
Wind: NW 8 mph , 13 km/h
Temperature: 82°F , 28°C
Heat Index: 82°F , 28°C
Dew Point: 57°F , 14°C
Humidity: 42%
Barometer: 29.97 inHg , 1014.9 hPa
Clouds: Clear
Visibility: 10 miles , 16 km
2022/07/06 19:58 KRIV 061958Z 32007KT 10SM CLR 28/14 A2997 RMK AO2A SLP137 T02840135
 
KTRM - Thermal/Palm Spg, California, USA
Distance from station: NE 75mi, 121km
Updated: Wed, 06-Jul-2022 12:52pm PDT
NOT Current
Clear
Clear
 Wind from SSE
Wind: SSE 6 mph , 9 km/h
Temperature: 97°F , 36°C
Dew Point: 54°F , 12°C
Humidity: 23%
Barometer: 29.80 inHg , 1009.1 hPa
Clouds: Clear
Visibility: 10 miles , 16 km
2022/07/06 19:52 KTRM 061952Z AUTO 15005KT 10SM CLR 36/12 A2980 RMK AO2 SLP095 T03560122
KPSP - Palm Springs, California, USA
Distance from station: NNE 76mi, 122km
Updated: Wed, 06-Jul-2022 12:53pm PDT
NOT Current
Clear
Clear
 Wind from varies
Wind: varies 6 mph , 9 km/h
Temperature: 99°F , 37°C
Dew Point: 50°F , 10°C
Humidity: 19%
Barometer: 29.85 inHg , 1010.8 hPa
Clouds: Clear
Visibility: 10 miles , 16 km
2022/07/06 19:53 KPSP 061953Z VRB05KT 10SM CLR 37/10 A2985 RMK AO2 SLP104 T03670100
 
KSNA - Costa Mesa, California, USA
Distance from station: NW 76mi, 123km
Updated: Wed, 06-Jul-2022 12:53pm PDT
NOT Current
Few Clouds
Few Clouds
 Wind from SW
Wind: SW 7 mph , 11 km/h
Temperature: 75°F , 24°C
Dew Point: 61°F , 16°C
Humidity: 61%
Barometer: 29.97 inHg , 1014.9 hPa
Clouds: Few Clouds
Visibility: 10 miles , 16 km
Cloud details: Few Clouds 1600 ft
2022/07/06 19:53 KSNA 061953Z 22006KT 10SM FEW016 24/16 A2997 RMK AO2 SLP146 T02440156
KNJK - El Centro Naf, California, USA
Distance from station: E 79mi, 127km
Updated: Wed, 06-Jul-2022 12:56pm PDT
NOT Current
Clear
Clear
 Wind from varies
Wind: varies 3 mph , 6 km/h
Temperature: 99°F , 37°C
Dew Point: 50°F , 10°C
Humidity: 19%
Barometer: 29.82 inHg , 1009.8 hPa
Clouds: Clear
Visibility: 10 miles , 16 km
2022/07/06 19:56 KNJK 061956Z VRB03KT 10SM CLR 37/10 A2982 RMK AO2 SLP113 T03720100 $
 
KAJO - Corona Muni, California, USA
Distance from station: NNW 82mi, 132km
Updated: Wed, 06-Jul-2022 12:56pm PDT
NOT Current
Clear
Clear
 
Temperature: 82°F , 28°C
Heat Index: 83°F , 28°C
Dew Point: 63°F , 17°C
Humidity: 51%
Barometer: 29.95 inHg , 1014.2 hPa
Clouds: Clear
Visibility: 10 miles , 16 km
2022/07/06 19:56 KAJO 061956Z AUTO 10SM CLR 28/17 A2995 RMK AO2 SLP137 T02780167 $